sensor_id;sensor_type;location;lat;lon;timestamp;temperature;humidity
42099;DHT22;27758;55.900;8.516;2022-08-27T00:02:18;17.70;99.90
42099;DHT22;27758;55.900;8.516;2022-08-27T00:04:44;17.70;99.90
42099;DHT22;27758;55.900;8.516;2022-08-27T00:07:11;17.70;99.90
42099;DHT22;27758;55.900;8.516;2022-08-27T00:09:39;17.70;99.90
42099;DHT22;27758;55.900;8.516;2022-08-27T00:12:05;17.70;99.90
42099;DHT22;27758;55.900;8.516;2022-08-27T00:14:31;17.70;99.90
42099;DHT22;27758;55.900;8.516;2022-08-27T00:16:58;17.70;99.90
42099;DHT22;27758;55.900;8.516;2022-08-27T00:19:23;17.70;99.90
42099;DHT22;27758;55.900;8.516;2022-08-27T00:21:49;17.70;99.90
42099;DHT22;27758;55.900;8.516;2022-08-27T00:24:16;17.70;99.90
42099;DHT22;27758;55.900;8.516;2022-08-27T00:26:42;17.70;99.90
42099;DHT22;27758;55.900;8.516;2022-08-27T00:29:07;17.70;99.90
42099;DHT22;27758;55.900;8.516;2022-08-27T00:31:34;17.70;99.90
42099;DHT22;27758;55.900;8.516;2022-08-27T00:34:00;17.70;99.90
42099;DHT22;27758;55.900;8.516;2022-08-27T00:36:26;17.60;99.90
42099;DHT22;27758;55.900;8.516;2022-08-27T00:38:52;17.60;99.90
42099;DHT22;27758;55.900;8.516;2022-08-27T00:41:18;17.50;99.90
42099;DHT22;27758;55.900;8.516;2022-08-27T00:46:15;17.50;99.90
42099;DHT22;27758;55.900;8.516;2022-08-27T00:48:43;17.40;99.90
42099;DHT22;27758;55.900;8.516;2022-08-27T00:51:09;17.30;99.90
42099;DHT22;27758;55.900;8.516;2022-08-27T00:53:35;17.30;99.90
42099;DHT22;27758;55.900;8.516;2022-08-27T00:56:04;17.30;99.90
42099;DHT22;27758;55.900;8.516;2022-08-27T00:58:33;17.20;99.90
42099;DHT22;27758;55.900;8.516;2022-08-27T01:01:00;17.30;99.90
42099;DHT22;27758;55.900;8.516;2022-08-27T01:03:34;17.20;99.90
42099;DHT22;27758;55.900;8.516;2022-08-27T01:06:00;17.10;99.90
42099;DHT22;27758;55.900;8.516;2022-08-27T01:08:28;17.10;99.90
42099;DHT22;27758;55.900;8.516;2022-08-27T01:10:56;17.10;99.90
42099;DHT22;27758;55.900;8.516;2022-08-27T01:13:25;17.00;99.90
42099;DHT22;27758;55.900;8.516;2022-08-27T01:15:52;17.10;99.90
42099;DHT22;27758;55.900;8.516;2022-08-27T01:18:24;17.10;99.90
42099;DHT22;27758;55.900;8.516;2022-08-27T01:25:51;16.90;99.90
42099;DHT22;27758;55.900;8.516;2022-08-27T01:28:38;17.00;99.90
42099;DHT22;27758;55.900;8.516;2022-08-27T01:31:24;17.00;99.90
42099;DHT22;27758;55.900;8.516;2022-08-27T01:34:09;16.90;99.90
42099;DHT22;27758;55.900;8.516;2022-08-27T01:36:36;17.00;99.90
42099;DHT22;27758;55.900;8.516;2022-08-27T01:39:03;16.90;99.90
42099;DHT22;27758;55.900;8.516;2022-08-27T01:41:29;16.90;99.90
42099;DHT22;27758;55.900;8.516;2022-08-27T01:43:56;16.90;99.90
42099;DHT22;27758;55.900;8.516;2022-08-27T01:46:24;16.90;99.90
42099;DHT22;27758;55.900;8.516;2022-08-27T01:49:10;16.90;99.90
42099;DHT22;27758;55.900;8.516;2022-08-27T01:51:56;16.90;99.90
42099;DHT22;27758;55.900;8.516;2022-08-27T01:54:41;16.80;99.90
42099;DHT22;27758;55.900;8.516;2022-08-27T01:57:27;16.80;99.90
42099;DHT22;27758;55.900;8.516;2022-08-27T02:00:18;16.90;99.90
42099;DHT22;27758;55.900;8.516;2022-08-27T02:03:05;16.90;99.90
42099;DHT22;27758;55.900;8.516;2022-08-27T02:05:51;16.90;99.90
42099;DHT22;27758;55.900;8.516;2022-08-27T02:08:36;16.90;99.90
42099;DHT22;27758;55.900;8.516;2022-08-27T02:11:22;16.90;99.90
42099;DHT22;27758;55.900;8.516;2022-08-27T02:13:48;16.90;99.90
42099;DHT22;27758;55.900;8.516;2022-08-27T02:16:14;16.90;99.90
42099;DHT22;27758;55.900;8.516;2022-08-27T02:18:39;16.90;99.90
42099;DHT22;27758;55.900;8.516;2022-08-27T02:21:06;16.80;99.90
42099;DHT22;27758;55.900;8.516;2022-08-27T02:23:32;16.80;99.90
42099;DHT22;27758;55.900;8.516;2022-08-27T02:25:58;16.80;99.90
42099;DHT22;27758;55.900;8.516;2022-08-27T02:28:24;16.80;99.90
42099;DHT22;27758;55.900;8.516;2022-08-27T02:30:50;16.80;99.90
42099;DHT22;27758;55.900;8.516;2022-08-27T02:33:16;16.80;99.90
42099;DHT22;27758;55.900;8.516;2022-08-27T02:35:43;16.80;99.90
42099;DHT22;27758;55.900;8.516;2022-08-27T02:38:09;16.80;99.90
42099;DHT22;27758;55.900;8.516;2022-08-27T02:40:36;16.80;99.90
42099;DHT22;27758;55.900;8.516;2022-08-27T02:43:03;16.80;99.90
42099;DHT22;27758;55.900;8.516;2022-08-27T02:45:29;16.70;99.90
42099;DHT22;27758;55.900;8.516;2022-08-27T02:47:54;16.70;99.90
42099;DHT22;27758;55.900;8.516;2022-08-27T02:50:20;16.80;99.90
42099;DHT22;27758;55.900;8.516;2022-08-27T02:52:46;16.70;99.90
42099;DHT22;27758;55.900;8.516;2022-08-27T02:55:12;16.60;99.90
42099;DHT22;27758;55.900;8.516;2022-08-27T02:57:38;16.60;99.90
42099;DHT22;27758;55.900;8.516;2022-08-27T03:00:06;16.50;99.90
42099;DHT22;27758;55.900;8.516;2022-08-27T03:02:33;16.50;99.90
42099;DHT22;27758;55.900;8.516;2022-08-27T03:04:58;16.50;99.90
42099;DHT22;27758;55.900;8.516;2022-08-27T03:07:24;16.40;99.90
42099;DHT22;27758;55.900;8.516;2022-08-27T03:09:50;16.40;99.90
42099;DHT22;27758;55.900;8.516;2022-08-27T03:12:16;16.30;99.90
42099;DHT22;27758;55.900;8.516;2022-08-27T03:14:42;16.30;99.90
42099;DHT22;27758;55.900;8.516;2022-08-27T03:17:07;16.20;99.90
42099;DHT22;27758;55.900;8.516;2022-08-27T03:19:51;16.20;99.90
42099;DHT22;27758;55.900;8.516;2022-08-27T03:22:17;16.10;99.90
42099;DHT22;27758;55.900;8.516;2022-08-27T03:24:43;16.00;99.90
42099;DHT22;27758;55.900;8.516;2022-08-27T03:27:09;16.10;99.90
42099;DHT22;27758;55.900;8.516;2022-08-27T03:29:34;16.10;99.90
42099;DHT22;27758;55.900;8.516;2022-08-27T03:32:00;16.10;99.90
42099;DHT22;27758;55.900;8.516;2022-08-27T03:34:26;16.10;99.90
42099;DHT22;27758;55.900;8.516;2022-08-27T03:36:52;16.10;99.90
42099;DHT22;27758;55.900;8.516;2022-08-27T03:39:18;16.10;99.90
42099;DHT22;27758;55.900;8.516;2022-08-27T03:41:44;16.00;99.90
42099;DHT22;27758;55.900;8.516;2022-08-27T03:44:09;16.00;99.90
42099;DHT22;27758;55.900;8.516;2022-08-27T03:46:36;16.10;99.90
42099;DHT22;27758;55.900;8.516;2022-08-27T03:49:02;16.10;99.90
42099;DHT22;27758;55.900;8.516;2022-08-27T03:51:28;16.10;99.90
42099;DHT22;27758;55.900;8.516;2022-08-27T03:53:54;16.20;99.90
42099;DHT22;27758;55.900;8.516;2022-08-27T03:56:19;16.20;99.90
42099;DHT22;27758;55.900;8.516;2022-08-27T03:58:45;16.20;99.90
42099;DHT22;27758;55.900;8.516;2022-08-27T04:01:11;16.20;99.90
42099;DHT22;27758;55.900;8.516;2022-08-27T04:03:37;16.20;99.90
42099;DHT22;27758;55.900;8.516;2022-08-27T04:06:03;16.20;99.90
42099;DHT22;27758;55.900;8.516;2022-08-27T04:08:29;16.20;99.90
42099;DHT22;27758;55.900;8.516;2022-08-27T04:10:55;16.20;99.90
42099;DHT22;27758;55.900;8.516;2022-08-27T04:13:21;16.20;99.90
42099;DHT22;27758;55.900;8.516;2022-08-27T04:15:48;16.20;99.90
42099;DHT22;27758;55.900;8.516;2022-08-27T04:18:14;16.30;99.90
42099;DHT22;27758;55.900;8.516;2022-08-27T04:20:47;16.30;99.90
42099;DHT22;27758;55.900;8.516;2022-08-27T04:23:14;16.30;99.90
42099;DHT22;27758;55.900;8.516;2022-08-27T04:25:43;16.30;99.90
42099;DHT22;27758;55.900;8.516;2022-08-27T04:28:09;16.30;99.90
42099;DHT22;27758;55.900;8.516;2022-08-27T04:30:39;16.40;99.90
42099;DHT22;27758;55.900;8.516;2022-08-27T04:33:05;16.40;99.90
42099;DHT22;27758;55.900;8.516;2022-08-27T04:35:31;16.40;99.90
42099;DHT22;27758;55.900;8.516;2022-08-27T04:37:56;16.40;99.90
42099;DHT22;27758;55.900;8.516;2022-08-27T04:40:22;16.50;99.90
42099;DHT22;27758;55.900;8.516;2022-08-27T04:43:08;16.40;99.90
42099;DHT22;27758;55.900;8.516;2022-08-27T04:45:40;16.40;99.90
42099;DHT22;27758;55.900;8.516;2022-08-27T04:48:06;16.50;99.90
42099;DHT22;27758;55.900;8.516;2022-08-27T04:50:32;16.50;99.90
42099;DHT22;27758;55.900;8.516;2022-08-27T04:52:57;16.50;99.90
42099;DHT22;27758;55.900;8.516;2022-08-27T04:55:23;16.50;99.90
42099;DHT22;27758;55.900;8.516;2022-08-27T04:57:49;16.50;99.90
42099;DHT22;27758;55.900;8.516;2022-08-27T05:00:15;16.50;99.90
42099;DHT22;27758;55.900;8.516;2022-08-27T05:02:40;16.50;99.90
42099;DHT22;27758;55.900;8.516;2022-08-27T05:05:06;16.60;99.90
42099;DHT22;27758;55.900;8.516;2022-08-27T05:07:32;16.60;99.90
42099;DHT22;27758;55.900;8.516;2022-08-27T05:09:58;16.60;99.90
42099;DHT22;27758;55.900;8.516;2022-08-27T05:12:23;16.70;99.90
42099;DHT22;27758;55.900;8.516;2022-08-27T05:14:49;16.70;99.90
42099;DHT22;27758;55.900;8.516;2022-08-27T05:17:15;16.70;99.90
42099;DHT22;27758;55.900;8.516;2022-08-27T05:19:41;16.70;99.90
42099;DHT22;27758;55.900;8.516;2022-08-27T05:22:06;16.80;99.90
42099;DHT22;27758;55.900;8.516;2022-08-27T05:24:32;16.90;99.90
42099;DHT22;27758;55.900;8.516;2022-08-27T05:26:58;16.90;99.90
42099;DHT22;27758;55.900;8.516;2022-08-27T05:29:23;16.90;99.90
42099;DHT22;27758;55.900;8.516;2022-08-27T05:31:49;16.90;99.90
42099;DHT22;27758;55.900;8.516;2022-08-27T05:34:15;17.00;99.90
42099;DHT22;27758;55.900;8.516;2022-08-27T05:36:41;17.10;99.90
42099;DHT22;27758;55.900;8.516;2022-08-27T05:39:06;17.10;99.90
42099;DHT22;27758;55.900;8.516;2022-08-27T05:41:33;17.10;99.90
42099;DHT22;27758;55.900;8.516;2022-08-27T05:44:00;17.20;99.90
42099;DHT22;27758;55.900;8.516;2022-08-27T05:46:26;17.20;99.90
42099;DHT22;27758;55.900;8.516;2022-08-27T05:48:52;17.20;99.90
42099;DHT22;27758;55.900;8.516;2022-08-27T05:51:21;17.20;99.90
42099;DHT22;27758;55.900;8.516;2022-08-27T05:53:47;17.30;99.90
42099;DHT22;27758;55.900;8.516;2022-08-27T05:56:13;17.30;99.90
42099;DHT22;27758;55.900;8.516;2022-08-27T05:58:40;17.20;99.90
42099;DHT22;27758;55.900;8.516;2022-08-27T06:01:24;17.30;99.90
42099;DHT22;27758;55.900;8.516;2022-08-27T06:03:50;17.30;99.90
42099;DHT22;27758;55.900;8.516;2022-08-27T06:06:17;17.40;99.90
42099;DHT22;27758;55.900;8.516;2022-08-27T06:08:43;17.50;99.90
42099;DHT22;27758;55.900;8.516;2022-08-27T06:11:08;17.50;99.90
42099;DHT22;27758;55.900;8.516;2022-08-27T06:13:34;17.60;99.90
42099;DHT22;27758;55.900;8.516;2022-08-27T06:16:01;17.50;99.90
42099;DHT22;27758;55.900;8.516;2022-08-27T06:18:27;17.60;99.90
42099;DHT22;27758;55.900;8.516;2022-08-27T06:20:53;17.70;99.90
42099;DHT22;27758;55.900;8.516;2022-08-27T06:23:19;17.60;99.90
42099;DHT22;27758;55.900;8.516;2022-08-27T06:25:45;17.60;99.90
42099;DHT22;27758;55.900;8.516;2022-08-27T06:28:11;17.70;99.90
42099;DHT22;27758;55.900;8.516;2022-08-27T06:30:37;17.70;99.90
42099;DHT22;27758;55.900;8.516;2022-08-27T06:33:03;17.60;99.90
42099;DHT22;27758;55.900;8.516;2022-08-27T06:35:29;17.60;99.90
42099;DHT22;27758;55.900;8.516;2022-08-27T06:37:55;17.60;99.90
42099;DHT22;27758;55.900;8.516;2022-08-27T06:40:20;17.70;99.90
42099;DHT22;27758;55.900;8.516;2022-08-27T06:42:47;17.70;99.90
42099;DHT22;27758;55.900;8.516;2022-08-27T06:45:13;17.60;99.90
42099;DHT22;27758;55.900;8.516;2022-08-27T06:47:39;17.70;99.90
42099;DHT22;27758;55.900;8.516;2022-08-27T06:50:05;17.70;99.90
42099;DHT22;27758;55.900;8.516;2022-08-27T06:52:30;17.60;99.90
42099;DHT22;27758;55.900;8.516;2022-08-27T06:54:56;17.70;99.90
42099;DHT22;27758;55.900;8.516;2022-08-27T06:57:22;17.80;99.90
42099;DHT22;27758;55.900;8.516;2022-08-27T06:59:49;17.90;99.90
42099;DHT22;27758;55.900;8.516;2022-08-27T07:02:16;18.10;99.90
42099;DHT22;27758;55.900;8.516;2022-08-27T07:04:41;18.20;99.90
42099;DHT22;27758;55.900;8.516;2022-08-27T07:07:09;18.20;99.90
42099;DHT22;27758;55.900;8.516;2022-08-27T07:09:35;18.20;99.90
42099;DHT22;27758;55.900;8.516;2022-08-27T07:12:00;18.20;99.90
42099;DHT22;27758;55.900;8.516;2022-08-27T07:14:26;18.30;99.90
42099;DHT22;27758;55.900;8.516;2022-08-27T07:16:52;18.30;99.90
42099;DHT22;27758;55.900;8.516;2022-08-27T07:19:18;18.30;99.90
42099;DHT22;27758;55.900;8.516;2022-08-27T07:21:44;18.40;99.90
42099;DHT22;27758;55.900;8.516;2022-08-27T07:24:10;18.50;99.90
42099;DHT22;27758;55.900;8.516;2022-08-27T07:26:38;18.50;99.90
42099;DHT22;27758;55.900;8.516;2022-08-27T07:29:05;18.50;99.90
42099;DHT22;27758;55.900;8.516;2022-08-27T07:31:31;18.40;99.90
42099;DHT22;27758;55.900;8.516;2022-08-27T07:33:57;18.40;99.90
42099;DHT22;27758;55.900;8.516;2022-08-27T07:36:23;18.40;99.90
42099;DHT22;27758;55.900;8.516;2022-08-27T07:38:49;18.40;99.90
42099;DHT22;27758;55.900;8.516;2022-08-27T07:41:16;18.30;99.90
42099;DHT22;27758;55.900;8.516;2022-08-27T07:43:42;18.40;99.90
42099;DHT22;27758;55.900;8.516;2022-08-27T07:46:26;18.40;99.90
42099;DHT22;27758;55.900;8.516;2022-08-27T07:48:52;18.50;99.90
42099;DHT22;27758;55.900;8.516;2022-08-27T07:51:21;18.50;99.90
42099;DHT22;27758;55.900;8.516;2022-08-27T07:53:47;18.60;99.90
42099;DHT22;27758;55.900;8.516;2022-08-27T07:56:14;18.60;99.90
42099;DHT22;27758;55.900;8.516;2022-08-27T07:58:40;18.50;99.90
42099;DHT22;27758;55.900;8.516;2022-08-27T08:01:06;18.50;99.90
42099;DHT22;27758;55.900;8.516;2022-08-27T08:03:32;18.60;99.90
42099;DHT22;27758;55.900;8.516;2022-08-27T08:06:05;18.60;99.90
42099;DHT22;27758;55.900;8.516;2022-08-27T08:08:32;18.60;99.90
42099;DHT22;27758;55.900;8.516;2022-08-27T08:10:57;18.60;99.90
42099;DHT22;27758;55.900;8.516;2022-08-27T08:13:23;18.50;99.90
42099;DHT22;27758;55.900;8.516;2022-08-27T08:15:49;18.50;99.90
42099;DHT22;27758;55.900;8.516;2022-08-27T08:18:15;18.60;99.90
42099;DHT22;27758;55.900;8.516;2022-08-27T08:20:41;18.70;99.90
42099;DHT22;27758;55.900;8.516;2022-08-27T08:23:06;18.90;99.90
42099;DHT22;27758;55.900;8.516;2022-08-27T08:25:32;18.80;99.90
42099;DHT22;27758;55.900;8.516;2022-08-27T08:27:58;18.80;99.90
42099;DHT22;27758;55.900;8.516;2022-08-27T08:30:25;18.80;99.90
42099;DHT22;27758;55.900;8.516;2022-08-27T08:32:51;19.00;99.90
42099;DHT22;27758;55.900;8.516;2022-08-27T08:35:17;19.00;99.90
42099;DHT22;27758;55.900;8.516;2022-08-27T08:37:43;19.10;99.90
42099;DHT22;27758;55.900;8.516;2022-08-27T08:40:09;19.20;99.90
42099;DHT22;27758;55.900;8.516;2022-08-27T08:42:38;19.20;99.90
42099;DHT22;27758;55.900;8.516;2022-08-27T08:45:06;19.20;99.90
42099;DHT22;27758;55.900;8.516;2022-08-27T08:47:45;19.20;99.90
42099;DHT22;27758;55.900;8.516;2022-08-27T08:50:16;19.30;99.90
42099;DHT22;27758;55.900;8.516;2022-08-27T08:52:52;19.40;99.90
42099;DHT22;27758;55.900;8.516;2022-08-27T09:00:36;19.90;99.90
42099;DHT22;27758;55.900;8.516;2022-08-27T09:03:01;19.90;99.90
42099;DHT22;27758;55.900;8.516;2022-08-27T09:05:27;20.10;99.90
42099;DHT22;27758;55.900;8.516;2022-08-27T09:08:02;20.10;99.90
42099;DHT22;27758;55.900;8.516;2022-08-27T09:10:39;20.00;99.90
42099;DHT22;27758;55.900;8.516;2022-08-27T09:13:18;19.90;99.90
42099;DHT22;27758;55.900;8.516;2022-08-27T09:15:44;19.80;99.90
42099;DHT22;27758;55.900;8.516;2022-08-27T09:18:12;19.70;99.90
42099;DHT22;27758;55.900;8.516;2022-08-27T09:20:38;19.60;99.90
42099;DHT22;27758;55.900;8.516;2022-08-27T09:25:49;19.60;99.90
42099;DHT22;27758;55.900;8.516;2022-08-27T09:28:19;19.60;99.90
42099;DHT22;27758;55.900;8.516;2022-08-27T09:31:05;19.60;99.90
42099;DHT22;27758;55.900;8.516;2022-08-27T09:33:31;19.70;99.90
42099;DHT22;27758;55.900;8.516;2022-08-27T09:35:59;19.70;99.90
42099;DHT22;27758;55.900;8.516;2022-08-27T09:38:26;19.70;99.90
42099;DHT22;27758;55.900;8.516;2022-08-27T09:40:52;19.70;99.90
42099;DHT22;27758;55.900;8.516;2022-08-27T09:43:22;19.70;99.90
42099;DHT22;27758;55.900;8.516;2022-08-27T09:45:49;19.80;99.90
42099;DHT22;27758;55.900;8.516;2022-08-27T09:48:20;19.80;99.90
42099;DHT22;27758;55.900;8.516;2022-08-27T09:50:47;19.80;99.90
42099;DHT22;27758;55.900;8.516;2022-08-27T09:55:52;19.80;99.90
42099;DHT22;27758;55.900;8.516;2022-08-27T09:58:19;19.90;99.90
42099;DHT22;27758;55.900;8.516;2022-08-27T10:00:46;20.10;99.90
42099;DHT22;27758;55.900;8.516;2022-08-27T10:03:13;20.20;99.90
42099;DHT22;27758;55.900;8.516;2022-08-27T10:05:45;20.40;99.90
42099;DHT22;27758;55.900;8.516;2022-08-27T10:08:23;20.60;99.90
42099;DHT22;27758;55.900;8.516;2022-08-27T10:10:55;20.80;99.90
42099;DHT22;27758;55.900;8.516;2022-08-27T10:31:58;21.10;99.90
42099;DHT22;27758;55.900;8.516;2022-08-27T10:34:41;21.30;99.90
42099;DHT22;27758;55.900;8.516;2022-08-27T10:37:20;21.40;99.90
42099;DHT22;27758;55.900;8.516;2022-08-27T10:39:55;21.50;99.90
42099;DHT22;27758;55.900;8.516;2022-08-27T10:42:41;21.60;99.90
42099;DHT22;27758;55.900;8.516;2022-08-27T10:45:13;21.70;99.90
42099;DHT22;27758;55.900;8.516;2022-08-27T10:53:18;21.50;99.90
42099;DHT22;27758;55.900;8.516;2022-08-27T10:55:42;21.30;99.90
42099;DHT22;27758;55.900;8.516;2022-08-27T11:03:31;21.50;99.90
42099;DHT22;27758;55.900;8.516;2022-08-27T11:05:59;21.40;99.90
42099;DHT22;27758;55.900;8.516;2022-08-27T11:10:57;21.30;99.90
42099;DHT22;27758;55.900;8.516;2022-08-27T11:16:00;22.20;99.90
42099;DHT22;27758;55.900;8.516;2022-08-27T11:20:56;22.60;99.90
42099;DHT22;27758;55.900;8.516;2022-08-27T11:23:29;22.60;99.90
42099;DHT22;27758;55.900;8.516;2022-08-27T11:26:00;22.40;99.90
42099;DHT22;27758;55.900;8.516;2022-08-27T11:30:59;22.90;99.90
42099;DHT22;27758;55.900;8.516;2022-08-27T11:36:16;23.20;99.90
42099;DHT22;27758;55.900;8.516;2022-08-27T11:38:55;23.20;99.90
42099;DHT22;27758;55.900;8.516;2022-08-27T11:44:07;23.50;99.90
42099;DHT22;27758;55.900;8.516;2022-08-27T11:46:43;23.40;99.90
42099;DHT22;27758;55.900;8.516;2022-08-27T11:49:09;23.60;99.90
42099;DHT22;27758;55.900;8.516;2022-08-27T11:51:36;23.80;99.90
42099;DHT22;27758;55.900;8.516;2022-08-27T11:54:07;23.70;99.90
42099;DHT22;27758;55.900;8.516;2022-08-27T11:56:38;23.80;99.90
42099;DHT22;27758;55.900;8.516;2022-08-27T12:01:51;24.40;99.90
42099;DHT22;27758;55.900;8.516;2022-08-27T12:07:00;24.60;99.90
42099;DHT22;27758;55.900;8.516;2022-08-27T12:09:27;24.70;99.90
42099;DHT22;27758;55.900;8.516;2022-08-27T12:12:06;25.10;99.90
42099;DHT22;27758;55.900;8.516;2022-08-27T12:14:48;25.30;99.90
42099;DHT22;27758;55.900;8.516;2022-08-27T12:25:37;26.00;99.90
42099;DHT22;27758;55.900;8.516;2022-08-27T12:28:04;26.40;99.90
42099;DHT22;27758;55.900;8.516;2022-08-27T12:30:35;26.00;99.90
42099;DHT22;27758;55.900;8.516;2022-08-27T12:35:50;25.20;99.90
42099;DHT22;27758;55.900;8.516;2022-08-27T12:38:19;25.10;99.90
42099;DHT22;27758;55.900;8.516;2022-08-27T12:43:13;24.90;99.90
42099;DHT22;27758;55.900;8.516;2022-08-27T12:45:44;25.10;99.90
42099;DHT22;27758;55.900;8.516;2022-08-27T12:48:10;25.20;99.90
42099;DHT22;27758;55.900;8.516;2022-08-27T12:50:36;25.40;99.90
42099;DHT22;27758;55.900;8.516;2022-08-27T12:55:35;25.20;99.90
42099;DHT22;27758;55.900;8.516;2022-08-27T12:58:05;25.20;99.90
42099;DHT22;27758;55.900;8.516;2022-08-27T13:01:19;25.40;99.90
42099;DHT22;27758;55.900;8.516;2022-08-27T13:03:25;25.30;99.90
42099;DHT22;27758;55.900;8.516;2022-08-27T13:05:53;25.00;99.90
42099;DHT22;27758;55.900;8.516;2022-08-27T13:08:32;25.00;99.90
42099;DHT22;27758;55.900;8.516;2022-08-27T13:13:33;24.70;99.90
42099;DHT22;27758;55.900;8.516;2022-08-27T13:16:02;24.50;99.90
42099;DHT22;27758;55.900;8.516;2022-08-27T13:18:28;24.60;99.90
42099;DHT22;27758;55.900;8.516;2022-08-27T13:21:06;24.50;99.90
42099;DHT22;27758;55.900;8.516;2022-08-27T13:23:33;24.30;99.90
42099;DHT22;27758;55.900;8.516;2022-08-27T13:26:04;24.10;99.90
42099;DHT22;27758;55.900;8.516;2022-08-27T13:28:30;24.10;99.90
42099;DHT22;27758;55.900;8.516;2022-08-27T13:30:58;24.10;99.90
42099;DHT22;27758;55.900;8.516;2022-08-27T13:33:25;24.00;99.90
42099;DHT22;27758;55.900;8.516;2022-08-27T13:35:52;24.00;99.90
42099;DHT22;27758;55.900;8.516;2022-08-27T13:38:20;23.80;99.90
42099;DHT22;27758;55.900;8.516;2022-08-27T13:40:50;23.60;99.90
42099;DHT22;27758;55.900;8.516;2022-08-27T13:43:17;23.70;99.90
42099;DHT22;27758;55.900;8.516;2022-08-27T13:45:46;23.70;99.90
42099;DHT22;27758;55.900;8.516;2022-08-27T13:48:12;23.60;99.90
42099;DHT22;27758;55.900;8.516;2022-08-27T13:50:45;23.40;99.90
42099;DHT22;27758;55.900;8.516;2022-08-27T13:53:12;23.40;99.90
42099;DHT22;27758;55.900;8.516;2022-08-27T13:56:01;23.40;99.90
42099;DHT22;27758;55.900;8.516;2022-08-27T13:58:29;23.30;99.90
42099;DHT22;27758;55.900;8.516;2022-08-27T14:01:06;23.30;99.90
42099;DHT22;27758;55.900;8.516;2022-08-27T14:03:34;23.30;99.90
42099;DHT22;27758;55.900;8.516;2022-08-27T14:06:00;23.20;99.90
42099;DHT22;27758;55.900;8.516;2022-08-27T14:08:28;23.00;99.90
42099;DHT22;27758;55.900;8.516;2022-08-27T14:13:23;23.00;99.90
42099;DHT22;27758;55.900;8.516;2022-08-27T14:15:54;23.10;99.90
42099;DHT22;27758;55.900;8.516;2022-08-27T14:18:25;23.20;99.90
42099;DHT22;27758;55.900;8.516;2022-08-27T14:20:52;23.30;99.90
42099;DHT22;27758;55.900;8.516;2022-08-27T14:23:18;23.20;99.90
42099;DHT22;27758;55.900;8.516;2022-08-27T14:25:45;22.90;99.90
42099;DHT22;27758;55.900;8.516;2022-08-27T14:28:11;22.80;99.90
42099;DHT22;27758;55.900;8.516;2022-08-27T14:30:37;22.80;99.90
42099;DHT22;27758;55.900;8.516;2022-08-27T14:33:03;22.80;99.90
42099;DHT22;27758;55.900;8.516;2022-08-27T14:35:30;22.90;99.90
42099;DHT22;27758;55.900;8.516;2022-08-27T14:37:57;22.90;99.90
42099;DHT22;27758;55.900;8.516;2022-08-27T14:40:23;22.80;99.90
42099;DHT22;27758;55.900;8.516;2022-08-27T14:42:49;22.70;99.90
42099;DHT22;27758;55.900;8.516;2022-08-27T14:45:15;22.60;99.90
42099;DHT22;27758;55.900;8.516;2022-08-27T14:47:41;22.40;99.90
42099;DHT22;27758;55.900;8.516;2022-08-27T14:50:11;22.30;99.90
42099;DHT22;27758;55.900;8.516;2022-08-27T14:52:37;22.30;99.90
42099;DHT22;27758;55.900;8.516;2022-08-27T14:55:06;22.30;99.90
42099;DHT22;27758;55.900;8.516;2022-08-27T14:57:33;22.30;99.90
42099;DHT22;27758;55.900;8.516;2022-08-27T14:59:59;22.30;99.90
42099;DHT22;27758;55.900;8.516;2022-08-27T15:02:24;22.20;99.90
42099;DHT22;27758;55.900;8.516;2022-08-27T15:04:50;22.00;99.90
42099;DHT22;27758;55.900;8.516;2022-08-27T15:07:16;22.00;99.90
42099;DHT22;27758;55.900;8.516;2022-08-27T15:09:44;21.90;99.90
42099;DHT22;27758;55.900;8.516;2022-08-27T15:12:10;21.90;99.90
42099;DHT22;27758;55.900;8.516;2022-08-27T15:14:36;22.00;99.90
42099;DHT22;27758;55.900;8.516;2022-08-27T15:17:03;22.00;99.90
42099;DHT22;27758;55.900;8.516;2022-08-27T15:19:32;22.10;99.90
42099;DHT22;27758;55.900;8.516;2022-08-27T15:22:08;21.90;99.90
42099;DHT22;27758;55.900;8.516;2022-08-27T15:24:39;21.90;99.90
42099;DHT22;27758;55.900;8.516;2022-08-27T15:27:06;21.90;99.90
42099;DHT22;27758;55.900;8.516;2022-08-27T15:29:32;22.00;99.90
42099;DHT22;27758;55.900;8.516;2022-08-27T15:31:58;21.90;99.90
42099;DHT22;27758;55.900;8.516;2022-08-27T15:34:24;21.80;99.90
42099;DHT22;27758;55.900;8.516;2022-08-27T15:36:50;21.70;99.90
42099;DHT22;27758;55.900;8.516;2022-08-27T15:39:15;21.60;99.90
42099;DHT22;27758;55.900;8.516;2022-08-27T15:41:41;21.60;99.90
42099;DHT22;27758;55.900;8.516;2022-08-27T15:44:08;21.50;99.90
42099;DHT22;27758;55.900;8.516;2022-08-27T15:46:33;21.50;99.90
42099;DHT22;27758;55.900;8.516;2022-08-27T15:48:59;21.50;99.90
42099;DHT22;27758;55.900;8.516;2022-08-27T15:51:29;21.40;99.90
42099;DHT22;27758;55.900;8.516;2022-08-27T15:53:56;21.40;99.90
42099;DHT22;27758;55.900;8.516;2022-08-27T15:56:22;21.20;99.90
42099;DHT22;27758;55.900;8.516;2022-08-27T15:58:48;21.20;99.90
42099;DHT22;27758;55.900;8.516;2022-08-27T16:01:15;21.20;99.90
42099;DHT22;27758;55.900;8.516;2022-08-27T16:03:44;21.20;99.90
42099;DHT22;27758;55.900;8.516;2022-08-27T16:06:10;21.10;99.90
42099;DHT22;27758;55.900;8.516;2022-08-27T16:08:37;21.20;99.90
42099;DHT22;27758;55.900;8.516;2022-08-27T16:11:03;21.10;99.90
42099;DHT22;27758;55.900;8.516;2022-08-27T16:13:28;21.00;99.90
42099;DHT22;27758;55.900;8.516;2022-08-27T16:15:54;21.00;99.90
42099;DHT22;27758;55.900;8.516;2022-08-27T16:18:24;20.90;99.90
42099;DHT22;27758;55.900;8.516;2022-08-27T16:20:51;20.90;99.90
42099;DHT22;27758;55.900;8.516;2022-08-27T16:23:17;20.90;99.90
42099;DHT22;27758;55.900;8.516;2022-08-27T16:25:45;21.00;99.90
42099;DHT22;27758;55.900;8.516;2022-08-27T16:28:11;20.90;99.90
42099;DHT22;27758;55.900;8.516;2022-08-27T16:30:38;20.80;99.90
42099;DHT22;27758;55.900;8.516;2022-08-27T16:33:04;20.50;99.90
42099;DHT22;27758;55.900;8.516;2022-08-27T16:35:30;20.60;99.90
42099;DHT22;27758;55.900;8.516;2022-08-27T16:37:56;20.60;99.90
42099;DHT22;27758;55.900;8.516;2022-08-27T16:40:22;20.50;99.90
42099;DHT22;27758;55.900;8.516;2022-08-27T16:42:49;20.40;99.90
42099;DHT22;27758;55.900;8.516;2022-08-27T16:45:16;20.30;99.90
42099;DHT22;27758;55.900;8.516;2022-08-27T16:47:43;20.30;99.90
42099;DHT22;27758;55.900;8.516;2022-08-27T16:50:27;20.30;99.90
42099;DHT22;27758;55.900;8.516;2022-08-27T16:55:33;20.00;99.90
42099;DHT22;27758;55.900;8.516;2022-08-27T16:57:59;19.90;99.90
42099;DHT22;27758;55.900;8.516;2022-08-27T17:00:25;19.80;99.90
42099;DHT22;27758;55.900;8.516;2022-08-27T17:02:51;19.80;99.90
42099;DHT22;27758;55.900;8.516;2022-08-27T17:05:17;19.80;99.90
42099;DHT22;27758;55.900;8.516;2022-08-27T17:07:43;19.80;99.90
42099;DHT22;27758;55.900;8.516;2022-08-27T17:10:08;19.80;99.90